Hebron, IN (46341)

4:40 PM CST on February 08, 2016 (GMT -0600)
Lakes of the four seasons | | Change Station
CLOSE
Current Station
Personal Weather Station
Location: Crown Point, IN
Elevation: 748 ft
Nearby Weather Stations
Active Advisory: Special Statement

Elev 748 ft 41.40 °N, 87.22 °W | Updated 3 minutes ago

Overcast
Overcast
27.3 °F
Feels Like 27 °F
N
0.0
Wind Variable Wind from SSW

Today
High -- | Low -- °F
--% Chance of Precip.
Yesterday
High -- | Low -- °F
Precip. -- in
Pressure 29.73 in
Visibility -9999.0 miles
Clouds Overcast 1900 ft
Windchill 27 °F
Dew Point 22 °F
Humidity 81%
Rainfall 0.00 in
Snow Depth Not available.
6:53 AM 5:13 PM
New Moon, 0% visible
METAR KVPZ 082156Z AUTO 28012KT OVC019 M02/M06 A2970 RMK AO2 SLP067 T10171056 TSNO $
Pressure 29.73 in
Visibility -9999.0 miles
Clouds Overcast 1900 ft
Windchill 27 °F
Dew Point 22 °F
Humidity 81%
Rainfall 0.00 in
Snow Depth Not available.
6:53 AM 5:13 PM
New Moon, 0% visible
METAR KVPZ 082156Z AUTO 28012KT OVC019 M02/M06 A2970 RMK AO2 SLP067 T10171056 TSNO $

10-Day Weather Forecast

Almanac

Astronomy

Feb. 08, 2016 Rise Set
Actual Time
Civil Twilight
Nautical Twilight
Astronomical Twilight
Moon
Length of Visible Light
Length of Day
Tomorrow will be .
, % of the Moon is Illuminated

Today's Extremes

State Highs State Lows

Community

WunderPhotos

Upload Photos

1,891,518 photos uploaded!

WunderBlog® & News

Nearby

Air Quality

  Air Quality AQ Index Pollutant
Not available.

Snow Depth

Station Depth Elevation

Earthquake Activity

City Distance Mag. Time & Date
Minimum magnitude displayed is 2.5.

Coastal Water Temperatures

Place Temperature

Stations

Nearby Weather Stations

Station Location Temp. Windchill Dew Point Humidity Wind Precip. Elev Updated Type
                   

Watches & Warnings

Special Statement
Issued: 4:07 PM EST Feb. 8, 2016 – National Weather Service

... Light snow likely tonight into early Tuesday...

Light snow is likely tonight into Tuesday morning with some minor
accumulations of an inch or so possible. Light snow will likely
have an adverse impact on the Tuesday morning rush hour.


307 PM CST Mon Feb 8 2016 /407 PM EST Mon Feb 8 2016/

... Light snow likely tonight into early Tuesday...

Light snow is likely tonight into Tuesday morning with some minor
accumulations of an inch or so possible. Light snow will likely
have an adverse impact on the Tuesday morning rush hour.